sensor_id;sensor_type;location;lat;lon;timestamp;P1;durP1;ratioP1;P2;durP2;ratioP2
12826;SDS011;66927;48.812;9.118;2024-01-07T00:01:37;13.80;;;10.87;;
12826;SDS011;66927;48.812;9.118;2024-01-07T00:04:03;13.10;;;11.87;;
12826;SDS011;66927;48.812;9.118;2024-01-07T00:06:29;13.77;;;11.67;;
12826;SDS011;66927;48.812;9.118;2024-01-07T00:08:54;13.07;;;11.67;;
12826;SDS011;66927;48.812;9.118;2024-01-07T00:11:20;13.50;;;11.77;;
12826;SDS011;66927;48.812;9.118;2024-01-07T00:13:46;11.97;;;10.33;;
12826;SDS011;66927;48.812;9.118;2024-01-07T00:16:11;12.87;;;11.47;;
12826;SDS011;66927;48.812;9.118;2024-01-07T00:18:37;11.40;;;10.30;;
12826;SDS011;66927;48.812;9.118;2024-01-07T00:21:04;12.70;;;10.37;;
12826;SDS011;66927;48.812;9.118;2024-01-07T00:23:29;11.27;;;10.17;;
12826;SDS011;66927;48.812;9.118;2024-01-07T00:25:55;10.67;;;9.67;;
12826;SDS011;66927;48.812;9.118;2024-01-07T00:28:20;10.63;;;9.60;;
12826;SDS011;66927;48.812;9.118;2024-01-07T00:30:46;11.70;;;10.50;;
12826;SDS011;66927;48.812;9.118;2024-01-07T00:33:12;10.77;;;9.67;;
12826;SDS011;66927;48.812;9.118;2024-01-07T00:35:37;17.10;;;13.40;;
12826;SDS011;66927;48.812;9.118;2024-01-07T00:38:03;28.97;;;23.07;;
12826;SDS011;66927;48.812;9.118;2024-01-07T00:40:28;18.00;;;12.00;;
12826;SDS011;66927;48.812;9.118;2024-01-07T00:42:54;12.23;;;10.83;;
12826;SDS011;66927;48.812;9.118;2024-01-07T00:45:20;12.17;;;10.90;;
12826;SDS011;66927;48.812;9.118;2024-01-07T00:47:46;13.30;;;11.90;;
12826;SDS011;66927;48.812;9.118;2024-01-07T00:50:12;13.77;;;11.63;;
12826;SDS011;66927;48.812;9.118;2024-01-07T00:52:38;14.13;;;12.37;;
12826;SDS011;66927;48.812;9.118;2024-01-07T00:55:04;15.40;;;13.13;;
12826;SDS011;66927;48.812;9.118;2024-01-07T00:57:31;17.00;;;13.67;;
12826;SDS011;66927;48.812;9.118;2024-01-07T00:59:57;17.27;;;14.30;;
12826;SDS011;66927;48.812;9.118;2024-01-07T01:02:22;16.60;;;13.77;;
12826;SDS011;66927;48.812;9.118;2024-01-07T01:04:48;18.77;;;15.13;;
12826;SDS011;66927;48.812;9.118;2024-01-07T01:07:14;19.30;;;15.17;;
12826;SDS011;66927;48.812;9.118;2024-01-07T01:09:39;18.20;;;14.50;;
12826;SDS011;66927;48.812;9.118;2024-01-07T01:12:05;19.50;;;14.23;;
12826;SDS011;66927;48.812;9.118;2024-01-07T01:14:31;19.73;;;16.33;;
12826;SDS011;66927;48.812;9.118;2024-01-07T01:16:56;21.03;;;14.93;;
12826;SDS011;66927;48.812;9.118;2024-01-07T01:19:23;24.20;;;18.07;;
12826;SDS011;66927;48.812;9.118;2024-01-07T01:21:49;31.27;;;23.23;;
12826;SDS011;66927;48.812;9.118;2024-01-07T01:24:15;19.23;;;15.80;;
12826;SDS011;66927;48.812;9.118;2024-01-07T01:26:40;22.30;;;16.83;;
12826;SDS011;66927;48.812;9.118;2024-01-07T01:29:06;21.50;;;17.00;;
12826;SDS011;66927;48.812;9.118;2024-01-07T01:31:32;20.50;;;16.33;;
12826;SDS011;66927;48.812;9.118;2024-01-07T01:33:57;21.63;;;16.93;;
12826;SDS011;66927;48.812;9.118;2024-01-07T01:36:23;21.20;;;16.77;;
12826;SDS011;66927;48.812;9.118;2024-01-07T01:38:49;20.27;;;15.83;;
12826;SDS011;66927;48.812;9.118;2024-01-07T01:41:15;20.27;;;16.73;;
12826;SDS011;66927;48.812;9.118;2024-01-07T01:43:41;23.37;;;17.40;;
12826;SDS011;66927;48.812;9.118;2024-01-07T01:46:07;21.87;;;16.93;;
12826;SDS011;66927;48.812;9.118;2024-01-07T01:48:32;22.20;;;17.43;;
12826;SDS011;66927;48.812;9.118;2024-01-07T01:51:00;24.07;;;17.47;;
12826;SDS011;66927;48.812;9.118;2024-01-07T01:53:26;19.73;;;16.07;;
12826;SDS011;66927;48.812;9.118;2024-01-07T01:55:52;20.07;;;17.37;;
12826;SDS011;66927;48.812;9.118;2024-01-07T01:58:20;20.23;;;16.07;;
12826;SDS011;66927;48.812;9.118;2024-01-07T02:00:46;19.10;;;15.90;;
12826;SDS011;66927;48.812;9.118;2024-01-07T02:03:12;21.50;;;17.13;;
12826;SDS011;66927;48.812;9.118;2024-01-07T02:05:38;22.10;;;16.67;;
12826;SDS011;66927;48.812;9.118;2024-01-07T02:08:04;21.97;;;17.33;;
12826;SDS011;66927;48.812;9.118;2024-01-07T02:10:30;20.87;;;16.77;;
12826;SDS011;66927;48.812;9.118;2024-01-07T02:12:59;20.50;;;16.17;;
12826;SDS011;66927;48.812;9.118;2024-01-07T02:15:25;19.50;;;15.97;;
12826;SDS011;66927;48.812;9.118;2024-01-07T02:17:51;17.17;;;14.80;;
12826;SDS011;66927;48.812;9.118;2024-01-07T02:20:17;21.30;;;15.43;;
12826;SDS011;66927;48.812;9.118;2024-01-07T02:22:42;18.30;;;15.00;;
12826;SDS011;66927;48.812;9.118;2024-01-07T02:25:08;17.40;;;15.53;;
12826;SDS011;66927;48.812;9.118;2024-01-07T02:27:34;18.80;;;14.27;;
12826;SDS011;66927;48.812;9.118;2024-01-07T02:29:59;19.97;;;14.50;;
12826;SDS011;66927;48.812;9.118;2024-01-07T02:32:25;21.47;;;15.23;;
12826;SDS011;66927;48.812;9.118;2024-01-07T02:34:51;16.03;;;14.33;;
12826;SDS011;66927;48.812;9.118;2024-01-07T02:37:18;18.03;;;13.23;;
12826;SDS011;66927;48.812;9.118;2024-01-07T02:39:44;18.97;;;13.67;;
12826;SDS011;66927;48.812;9.118;2024-01-07T02:42:10;17.43;;;14.37;;
12826;SDS011;66927;48.812;9.118;2024-01-07T02:44:36;17.43;;;12.33;;
12826;SDS011;66927;48.812;9.118;2024-01-07T02:47:02;15.13;;;13.07;;
12826;SDS011;66927;48.812;9.118;2024-01-07T02:49:28;16.80;;;12.73;;
12826;SDS011;66927;48.812;9.118;2024-01-07T02:51:53;14.50;;;12.60;;
12826;SDS011;66927;48.812;9.118;2024-01-07T02:54:19;15.53;;;13.30;;
12826;SDS011;66927;48.812;9.118;2024-01-07T02:56:44;19.07;;;12.60;;
12826;SDS011;66927;48.812;9.118;2024-01-07T02:59:10;15.87;;;12.60;;
12826;SDS011;66927;48.812;9.118;2024-01-07T03:01:36;13.70;;;12.20;;
12826;SDS011;66927;48.812;9.118;2024-01-07T03:04:15;14.10;;;11.93;;
12826;SDS011;66927;48.812;9.118;2024-01-07T03:06:41;14.90;;;12.33;;
12826;SDS011;66927;48.812;9.118;2024-01-07T03:09:07;17.00;;;12.30;;
12826;SDS011;66927;48.812;9.118;2024-01-07T03:11:38;13.80;;;11.40;;
12826;SDS011;66927;48.812;9.118;2024-01-07T03:14:07;14.70;;;12.10;;
12826;SDS011;66927;48.812;9.118;2024-01-07T03:16:32;14.93;;;12.63;;
12826;SDS011;66927;48.812;9.118;2024-01-07T03:18:58;16.23;;;13.43;;
12826;SDS011;66927;48.812;9.118;2024-01-07T03:21:24;14.50;;;12.93;;
12826;SDS011;66927;48.812;9.118;2024-01-07T03:23:50;15.27;;;13.60;;
12826;SDS011;66927;48.812;9.118;2024-01-07T03:26:17;14.13;;;12.37;;
12826;SDS011;66927;48.812;9.118;2024-01-07T03:28:43;15.30;;;13.43;;
12826;SDS011;66927;48.812;9.118;2024-01-07T03:31:10;14.30;;;11.87;;
12826;SDS011;66927;48.812;9.118;2024-01-07T03:33:38;14.90;;;12.17;;
12826;SDS011;66927;48.812;9.118;2024-01-07T03:36:07;16.43;;;13.50;;
12826;SDS011;66927;48.812;9.118;2024-01-07T03:38:34;15.53;;;11.80;;
12826;SDS011;66927;48.812;9.118;2024-01-07T03:41:00;14.57;;;11.87;;
12826;SDS011;66927;48.812;9.118;2024-01-07T03:43:26;16.37;;;13.40;;
12826;SDS011;66927;48.812;9.118;2024-01-07T03:45:51;16.13;;;13.43;;
12826;SDS011;66927;48.812;9.118;2024-01-07T03:48:17;16.03;;;13.73;;
12826;SDS011;66927;48.812;9.118;2024-01-07T03:50:42;17.43;;;13.03;;
12826;SDS011;66927;48.812;9.118;2024-01-07T03:53:08;16.17;;;13.23;;
12826;SDS011;66927;48.812;9.118;2024-01-07T03:55:34;14.63;;;12.40;;
12826;SDS011;66927;48.812;9.118;2024-01-07T03:58:00;14.93;;;13.07;;
12826;SDS011;66927;48.812;9.118;2024-01-07T04:00:25;14.93;;;13.33;;
12826;SDS011;66927;48.812;9.118;2024-01-07T04:02:51;17.80;;;12.97;;
12826;SDS011;66927;48.812;9.118;2024-01-07T04:05:16;14.83;;;12.27;;
12826;SDS011;66927;48.812;9.118;2024-01-07T04:07:42;16.43;;;12.80;;
12826;SDS011;66927;48.812;9.118;2024-01-07T04:10:08;14.93;;;12.57;;
12826;SDS011;66927;48.812;9.118;2024-01-07T04:12:33;13.83;;;11.57;;
12826;SDS011;66927;48.812;9.118;2024-01-07T04:14:59;13.43;;;11.67;;
12826;SDS011;66927;48.812;9.118;2024-01-07T04:17:25;14.50;;;12.27;;
12826;SDS011;66927;48.812;9.118;2024-01-07T04:19:51;12.87;;;11.40;;
12826;SDS011;66927;48.812;9.118;2024-01-07T04:22:17;13.33;;;11.60;;
12826;SDS011;66927;48.812;9.118;2024-01-07T04:24:42;13.53;;;11.70;;
12826;SDS011;66927;48.812;9.118;2024-01-07T04:27:08;13.70;;;11.30;;
12826;SDS011;66927;48.812;9.118;2024-01-07T04:29:34;14.73;;;12.27;;
12826;SDS011;66927;48.812;9.118;2024-01-07T04:32:00;14.13;;;11.87;;
12826;SDS011;66927;48.812;9.118;2024-01-07T04:34:26;13.13;;;10.17;;
12826;SDS011;66927;48.812;9.118;2024-01-07T04:36:52;12.30;;;10.77;;
12826;SDS011;66927;48.812;9.118;2024-01-07T04:39:17;14.60;;;11.73;;
12826;SDS011;66927;48.812;9.118;2024-01-07T04:41:43;14.27;;;11.33;;
12826;SDS011;66927;48.812;9.118;2024-01-07T04:44:08;14.43;;;12.07;;
12826;SDS011;66927;48.812;9.118;2024-01-07T04:46:34;13.57;;;11.63;;
12826;SDS011;66927;48.812;9.118;2024-01-07T04:49:03;15.67;;;12.07;;
12826;SDS011;66927;48.812;9.118;2024-01-07T04:51:29;15.93;;;11.53;;
12826;SDS011;66927;48.812;9.118;2024-01-07T04:53:55;13.10;;;11.27;;
12826;SDS011;66927;48.812;9.118;2024-01-07T04:56:20;13.77;;;10.93;;
12826;SDS011;66927;48.812;9.118;2024-01-07T04:58:46;13.50;;;11.00;;
12826;SDS011;66927;48.812;9.118;2024-01-07T05:01:11;12.17;;;10.40;;
12826;SDS011;66927;48.812;9.118;2024-01-07T05:03:37;13.33;;;11.30;;
12826;SDS011;66927;48.812;9.118;2024-01-07T05:06:03;14.10;;;11.07;;
12826;SDS011;66927;48.812;9.118;2024-01-07T05:08:29;12.57;;;11.00;;
12826;SDS011;66927;48.812;9.118;2024-01-07T05:10:55;13.07;;;10.47;;
12826;SDS011;66927;48.812;9.118;2024-01-07T05:13:21;14.77;;;11.23;;
12826;SDS011;66927;48.812;9.118;2024-01-07T05:15:47;14.00;;;11.27;;
12826;SDS011;66927;48.812;9.118;2024-01-07T05:18:20;14.57;;;11.03;;
12826;SDS011;66927;48.812;9.118;2024-01-07T05:20:47;14.23;;;11.23;;
12826;SDS011;66927;48.812;9.118;2024-01-07T05:23:12;15.67;;;11.50;;
12826;SDS011;66927;48.812;9.118;2024-01-07T05:25:38;14.07;;;11.03;;
12826;SDS011;66927;48.812;9.118;2024-01-07T05:28:04;11.60;;;10.10;;
12826;SDS011;66927;48.812;9.118;2024-01-07T05:30:30;11.97;;;10.37;;
12826;SDS011;66927;48.812;9.118;2024-01-07T05:32:55;12.97;;;10.37;;
12826;SDS011;66927;48.812;9.118;2024-01-07T05:35:21;11.57;;;9.53;;
12826;SDS011;66927;48.812;9.118;2024-01-07T05:37:46;12.07;;;10.00;;
12826;SDS011;66927;48.812;9.118;2024-01-07T05:40:12;13.37;;;9.90;;
12826;SDS011;66927;48.812;9.118;2024-01-07T05:42:38;11.80;;;9.40;;
12826;SDS011;66927;48.812;9.118;2024-01-07T05:45:04;12.10;;;9.67;;
12826;SDS011;66927;48.812;9.118;2024-01-07T05:47:30;11.40;;;9.57;;
12826;SDS011;66927;48.812;9.118;2024-01-07T05:49:55;12.70;;;9.67;;
12826;SDS011;66927;48.812;9.118;2024-01-07T05:52:21;11.83;;;9.47;;
12826;SDS011;66927;48.812;9.118;2024-01-07T05:54:49;11.43;;;8.90;;
12826;SDS011;66927;48.812;9.118;2024-01-07T05:57:15;12.17;;;9.70;;
12826;SDS011;66927;48.812;9.118;2024-01-07T05:59:41;10.37;;;8.90;;
12826;SDS011;66927;48.812;9.118;2024-01-07T06:02:09;12.77;;;10.17;;
12826;SDS011;66927;48.812;9.118;2024-01-07T06:04:38;11.70;;;9.70;;
12826;SDS011;66927;48.812;9.118;2024-01-07T06:07:04;12.63;;;10.40;;
12826;SDS011;66927;48.812;9.118;2024-01-07T06:09:30;11.03;;;8.97;;
12826;SDS011;66927;48.812;9.118;2024-01-07T06:11:55;11.97;;;9.53;;
12826;SDS011;66927;48.812;9.118;2024-01-07T06:14:22;11.63;;;9.07;;
12826;SDS011;66927;48.812;9.118;2024-01-07T06:16:48;11.00;;;9.50;;
12826;SDS011;66927;48.812;9.118;2024-01-07T06:19:14;10.17;;;8.90;;
12826;SDS011;66927;48.812;9.118;2024-01-07T06:21:41;11.80;;;10.07;;
12826;SDS011;66927;48.812;9.118;2024-01-07T06:24:10;12.87;;;10.23;;
12826;SDS011;66927;48.812;9.118;2024-01-07T06:26:36;12.17;;;9.80;;
12826;SDS011;66927;48.812;9.118;2024-01-07T06:29:02;10.17;;;8.43;;
12826;SDS011;66927;48.812;9.118;2024-01-07T06:31:27;10.40;;;8.80;;
12826;SDS011;66927;48.812;9.118;2024-01-07T06:33:53;10.73;;;9.07;;
12826;SDS011;66927;48.812;9.118;2024-01-07T06:36:22;10.30;;;9.20;;
12826;SDS011;66927;48.812;9.118;2024-01-07T06:38:48;9.57;;;8.57;;
12826;SDS011;66927;48.812;9.118;2024-01-07T06:41:14;11.33;;;8.87;;
12826;SDS011;66927;48.812;9.118;2024-01-07T06:43:40;12.43;;;9.07;;
12826;SDS011;66927;48.812;9.118;2024-01-07T06:46:06;11.00;;;8.73;;
12826;SDS011;66927;48.812;9.118;2024-01-07T06:48:31;10.20;;;8.67;;
12826;SDS011;66927;48.812;9.118;2024-01-07T06:50:57;10.60;;;8.53;;
12826;SDS011;66927;48.812;9.118;2024-01-07T06:53:23;10.23;;;8.93;;
12826;SDS011;66927;48.812;9.118;2024-01-07T06:55:48;10.87;;;9.00;;
12826;SDS011;66927;48.812;9.118;2024-01-07T06:58:14;10.30;;;8.67;;
12826;SDS011;66927;48.812;9.118;2024-01-07T07:00:39;11.03;;;8.50;;
12826;SDS011;66927;48.812;9.118;2024-01-07T07:03:05;8.87;;;7.97;;
12826;SDS011;66927;48.812;9.118;2024-01-07T07:05:31;10.17;;;8.27;;
12826;SDS011;66927;48.812;9.118;2024-01-07T07:07:59;8.87;;;7.73;;
12826;SDS011;66927;48.812;9.118;2024-01-07T07:10:27;9.70;;;8.30;;
12826;SDS011;66927;48.812;9.118;2024-01-07T07:12:53;9.43;;;7.43;;
12826;SDS011;66927;48.812;9.118;2024-01-07T07:15:19;9.67;;;7.80;;
12826;SDS011;66927;48.812;9.118;2024-01-07T07:17:44;9.27;;;7.53;;
12826;SDS011;66927;48.812;9.118;2024-01-07T07:20:11;8.17;;;6.73;;
12826;SDS011;66927;48.812;9.118;2024-01-07T07:22:37;8.00;;;7.20;;
12826;SDS011;66927;48.812;9.118;2024-01-07T07:25:02;8.50;;;7.43;;
12826;SDS011;66927;48.812;9.118;2024-01-07T07:27:28;7.87;;;6.77;;
12826;SDS011;66927;48.812;9.118;2024-01-07T07:29:54;6.83;;;6.13;;
12826;SDS011;66927;48.812;9.118;2024-01-07T07:32:19;6.77;;;6.00;;
12826;SDS011;66927;48.812;9.118;2024-01-07T07:34:45;7.43;;;6.27;;
12826;SDS011;66927;48.812;9.118;2024-01-07T07:37:13;5.93;;;5.40;;
12826;SDS011;66927;48.812;9.118;2024-01-07T07:39:38;8.93;;;6.00;;
12826;SDS011;66927;48.812;9.118;2024-01-07T07:42:04;7.47;;;6.37;;
12826;SDS011;66927;48.812;9.118;2024-01-07T07:44:30;7.53;;;6.17;;
12826;SDS011;66927;48.812;9.118;2024-01-07T07:46:55;6.13;;;5.53;;
12826;SDS011;66927;48.812;9.118;2024-01-07T07:49:21;10.33;;;8.90;;
12826;SDS011;66927;48.812;9.118;2024-01-07T07:51:47;7.43;;;6.10;;
12826;SDS011;66927;48.812;9.118;2024-01-07T07:54:12;7.73;;;6.57;;
12826;SDS011;66927;48.812;9.118;2024-01-07T07:56:38;7.83;;;5.40;;
12826;SDS011;66927;48.812;9.118;2024-01-07T07:59:03;6.67;;;5.97;;
12826;SDS011;66927;48.812;9.118;2024-01-07T08:01:30;8.60;;;6.00;;
12826;SDS011;66927;48.812;9.118;2024-01-07T08:03:56;6.73;;;6.03;;
12826;SDS011;66927;48.812;9.118;2024-01-07T08:06:22;6.77;;;5.30;;
12826;SDS011;66927;48.812;9.118;2024-01-07T08:08:49;7.00;;;5.60;;
12826;SDS011;66927;48.812;9.118;2024-01-07T08:11:14;6.13;;;5.17;;
12826;SDS011;66927;48.812;9.118;2024-01-07T08:13:40;6.27;;;5.03;;
12826;SDS011;66927;48.812;9.118;2024-01-07T08:16:06;6.77;;;5.80;;
12826;SDS011;66927;48.812;9.118;2024-01-07T08:18:32;7.87;;;7.17;;
12826;SDS011;66927;48.812;9.118;2024-01-07T08:20:58;6.23;;;5.33;;
12826;SDS011;66927;48.812;9.118;2024-01-07T08:23:25;7.67;;;5.47;;
12826;SDS011;66927;48.812;9.118;2024-01-07T08:25:51;5.27;;;4.77;;
12826;SDS011;66927;48.812;9.118;2024-01-07T08:28:17;6.90;;;4.83;;
12826;SDS011;66927;48.812;9.118;2024-01-07T08:30:43;12.33;;;10.23;;
12826;SDS011;66927;48.812;9.118;2024-01-07T08:33:09;7.50;;;5.97;;
12826;SDS011;66927;48.812;9.118;2024-01-07T08:35:35;5.97;;;5.30;;
12826;SDS011;66927;48.812;9.118;2024-01-07T08:38:02;6.17;;;5.57;;
12826;SDS011;66927;48.812;9.118;2024-01-07T08:40:28;5.23;;;4.70;;
12826;SDS011;66927;48.812;9.118;2024-01-07T08:42:55;6.37;;;5.17;;
12826;SDS011;66927;48.812;9.118;2024-01-07T08:45:20;7.27;;;5.60;;
12826;SDS011;66927;48.812;9.118;2024-01-07T08:47:46;6.63;;;5.10;;
12826;SDS011;66927;48.812;9.118;2024-01-07T08:50:12;8.23;;;5.37;;
12826;SDS011;66927;48.812;9.118;2024-01-07T08:52:38;6.97;;;5.53;;
12826;SDS011;66927;48.812;9.118;2024-01-07T08:55:03;5.53;;;4.80;;
12826;SDS011;66927;48.812;9.118;2024-01-07T08:57:31;5.10;;;4.30;;
12826;SDS011;66927;48.812;9.118;2024-01-07T09:00:00;6.00;;;4.23;;
12826;SDS011;66927;48.812;9.118;2024-01-07T09:02:25;5.00;;;4.20;;
12826;SDS011;66927;48.812;9.118;2024-01-07T09:04:51;5.17;;;4.47;;
12826;SDS011;66927;48.812;9.118;2024-01-07T09:07:17;4.97;;;4.23;;
12826;SDS011;66927;48.812;9.118;2024-01-07T09:09:44;12.67;;;10.17;;
12826;SDS011;66927;48.812;9.118;2024-01-07T09:12:10;6.13;;;4.90;;
12826;SDS011;66927;48.812;9.118;2024-01-07T09:14:37;5.83;;;5.00;;
12826;SDS011;66927;48.812;9.118;2024-01-07T09:17:03;5.00;;;4.50;;
12826;SDS011;66927;48.812;9.118;2024-01-07T09:19:28;6.63;;;5.03;;
12826;SDS011;66927;48.812;9.118;2024-01-07T09:21:55;7.43;;;6.10;;
12826;SDS011;66927;48.812;9.118;2024-01-07T09:24:21;6.87;;;5.90;;
12826;SDS011;66927;48.812;9.118;2024-01-07T09:26:47;8.13;;;6.30;;
12826;SDS011;66927;48.812;9.118;2024-01-07T09:29:12;6.87;;;6.10;;
12826;SDS011;66927;48.812;9.118;2024-01-07T09:31:39;7.77;;;6.10;;
12826;SDS011;66927;48.812;9.118;2024-01-07T09:34:04;6.97;;;5.97;;
12826;SDS011;66927;48.812;9.118;2024-01-07T09:36:31;6.47;;;5.80;;
12826;SDS011;66927;48.812;9.118;2024-01-07T09:38:57;5.87;;;5.20;;
12826;SDS011;66927;48.812;9.118;2024-01-07T09:41:23;6.00;;;4.60;;
12826;SDS011;66927;48.812;9.118;2024-01-07T09:43:49;6.10;;;4.93;;
12826;SDS011;66927;48.812;9.118;2024-01-07T09:46:17;5.73;;;4.57;;
12826;SDS011;66927;48.812;9.118;2024-01-07T09:48:45;6.23;;;4.93;;
12826;SDS011;66927;48.812;9.118;2024-01-07T09:51:11;5.43;;;4.47;;
12826;SDS011;66927;48.812;9.118;2024-01-07T09:53:38;8.13;;;4.80;;
12826;SDS011;66927;48.812;9.118;2024-01-07T09:56:11;5.63;;;5.00;;
12826;SDS011;66927;48.812;9.118;2024-01-07T09:58:38;6.70;;;4.80;;
12826;SDS011;66927;48.812;9.118;2024-01-07T10:01:06;7.07;;;5.43;;
12826;SDS011;66927;48.812;9.118;2024-01-07T10:03:32;7.13;;;5.37;;
12826;SDS011;66927;48.812;9.118;2024-01-07T10:05:58;10.67;;;8.73;;
12826;SDS011;66927;48.812;9.118;2024-01-07T10:08:23;9.27;;;7.40;;
12826;SDS011;66927;48.812;9.118;2024-01-07T10:10:50;6.30;;;5.40;;
12826;SDS011;66927;48.812;9.118;2024-01-07T10:13:16;7.57;;;5.87;;
12826;SDS011;66927;48.812;9.118;2024-01-07T10:15:42;6.40;;;5.30;;
12826;SDS011;66927;48.812;9.118;2024-01-07T10:18:08;6.20;;;5.43;;
12826;SDS011;66927;48.812;9.118;2024-01-07T10:20:34;7.03;;;5.63;;
12826;SDS011;66927;48.812;9.118;2024-01-07T10:23:02;5.27;;;4.77;;
12826;SDS011;66927;48.812;9.118;2024-01-07T10:25:32;5.23;;;4.73;;
12826;SDS011;66927;48.812;9.118;2024-01-07T10:28:01;5.23;;;4.50;;
12826;SDS011;66927;48.812;9.118;2024-01-07T10:30:30;7.10;;;4.70;;
12826;SDS011;66927;48.812;9.118;2024-01-07T10:32:56;4.90;;;4.23;;
12826;SDS011;66927;48.812;9.118;2024-01-07T10:35:22;4.83;;;4.33;;
12826;SDS011;66927;48.812;9.118;2024-01-07T10:37:54;4.93;;;4.23;;
12826;SDS011;66927;48.812;9.118;2024-01-07T10:40:20;5.23;;;4.73;;
12826;SDS011;66927;48.812;9.118;2024-01-07T10:42:46;7.63;;;6.03;;
12826;SDS011;66927;48.812;9.118;2024-01-07T10:45:13;7.07;;;5.70;;
12826;SDS011;66927;48.812;9.118;2024-01-07T10:47:40;6.17;;;4.73;;
12826;SDS011;66927;48.812;9.118;2024-01-07T10:50:09;5.93;;;4.93;;
12826;SDS011;66927;48.812;9.118;2024-01-07T10:52:39;5.60;;;4.30;;
12826;SDS011;66927;48.812;9.118;2024-01-07T10:55:09;4.67;;;4.23;;
12826;SDS011;66927;48.812;9.118;2024-01-07T10:57:46;4.60;;;4.20;;
12826;SDS011;66927;48.812;9.118;2024-01-07T11:00:15;4.37;;;3.97;;
12826;SDS011;66927;48.812;9.118;2024-01-07T11:05:43;5.47;;;4.53;;
12826;SDS011;66927;48.812;9.118;2024-01-07T11:10:59;4.97;;;4.30;;
12826;SDS011;66927;48.812;9.118;2024-01-07T11:13:35;4.40;;;4.00;;
12826;SDS011;66927;48.812;9.118;2024-01-07T11:16:08;4.67;;;4.13;;
12826;SDS011;66927;48.812;9.118;2024-01-07T11:18:40;5.33;;;4.47;;
12826;SDS011;66927;48.812;9.118;2024-01-07T11:21:22;5.10;;;4.60;;
12826;SDS011;66927;48.812;9.118;2024-01-07T11:23:52;5.33;;;4.83;;
12826;SDS011;66927;48.812;9.118;2024-01-07T11:26:18;5.03;;;4.53;;
12826;SDS011;66927;48.812;9.118;2024-01-07T11:31:21;5.80;;;5.10;;
12826;SDS011;66927;48.812;9.118;2024-01-07T11:34:07;5.03;;;4.50;;
12826;SDS011;66927;48.812;9.118;2024-01-07T11:36:35;4.63;;;4.20;;
12826;SDS011;66927;48.812;9.118;2024-01-07T11:39:01;5.17;;;4.67;;
12826;SDS011;66927;48.812;9.118;2024-01-07T11:41:29;5.03;;;4.50;;
12826;SDS011;66927;48.812;9.118;2024-01-07T11:44:00;4.87;;;4.37;;
12826;SDS011;66927;48.812;9.118;2024-01-07T11:46:29;4.87;;;4.13;;
12826;SDS011;66927;48.812;9.118;2024-01-07T11:48:59;5.03;;;4.33;;
12826;SDS011;66927;48.812;9.118;2024-01-07T11:51:28;4.93;;;4.40;;
12826;SDS011;66927;48.812;9.118;2024-01-07T11:53:58;4.80;;;4.30;;
12826;SDS011;66927;48.812;9.118;2024-01-07T11:56:25;4.43;;;4.03;;
12826;SDS011;66927;48.812;9.118;2024-01-07T11:58:51;4.87;;;4.37;;
12826;SDS011;66927;48.812;9.118;2024-01-07T12:01:17;7.10;;;6.07;;
12826;SDS011;66927;48.812;9.118;2024-01-07T12:03:44;11.10;;;8.17;;
12826;SDS011;66927;48.812;9.118;2024-01-07T12:06:10;5.97;;;5.37;;
12826;SDS011;66927;48.812;9.118;2024-01-07T12:08:39;5.67;;;5.07;;
12826;SDS011;66927;48.812;9.118;2024-01-07T12:11:07;5.20;;;4.70;;
12826;SDS011;66927;48.812;9.118;2024-01-07T12:13:34;5.63;;;4.67;;
12826;SDS011;66927;48.812;9.118;2024-01-07T12:15:59;5.33;;;4.60;;
12826;SDS011;66927;48.812;9.118;2024-01-07T12:18:25;6.17;;;5.00;;
12826;SDS011;66927;48.812;9.118;2024-01-07T12:20:57;6.03;;;5.20;;
12826;SDS011;66927;48.812;9.118;2024-01-07T12:23:25;6.17;;;5.30;;
12826;SDS011;66927;48.812;9.118;2024-01-07T12:25:54;6.37;;;5.40;;
12826;SDS011;66927;48.812;9.118;2024-01-07T12:28:20;7.40;;;6.10;;
12826;SDS011;66927;48.812;9.118;2024-01-07T12:30:47;6.90;;;6.20;;
12826;SDS011;66927;48.812;9.118;2024-01-07T12:33:21;7.20;;;6.23;;
12826;SDS011;66927;48.812;9.118;2024-01-07T12:35:47;6.57;;;5.87;;
12826;SDS011;66927;48.812;9.118;2024-01-07T12:38:13;7.40;;;6.20;;
12826;SDS011;66927;48.812;9.118;2024-01-07T12:40:39;6.53;;;5.93;;
12826;SDS011;66927;48.812;9.118;2024-01-07T12:43:05;6.50;;;5.83;;
12826;SDS011;66927;48.812;9.118;2024-01-07T12:45:32;7.30;;;6.20;;
12826;SDS011;66927;48.812;9.118;2024-01-07T12:47:58;7.40;;;6.20;;
12826;SDS011;66927;48.812;9.118;2024-01-07T12:50:27;6.90;;;6.20;;
12826;SDS011;66927;48.812;9.118;2024-01-07T12:52:55;6.40;;;5.80;;
12826;SDS011;66927;48.812;9.118;2024-01-07T12:55:20;7.13;;;6.43;;
12826;SDS011;66927;48.812;9.118;2024-01-07T12:57:47;7.50;;;6.70;;
12826;SDS011;66927;48.812;9.118;2024-01-07T13:00:12;7.60;;;6.80;;
12826;SDS011;66927;48.812;9.118;2024-01-07T13:02:38;7.07;;;6.23;;
12826;SDS011;66927;48.812;9.118;2024-01-07T13:05:05;7.33;;;6.03;;
12826;SDS011;66927;48.812;9.118;2024-01-07T13:07:32;8.17;;;6.17;;
12826;SDS011;66927;48.812;9.118;2024-01-07T13:09:57;6.73;;;6.03;;
12826;SDS011;66927;48.812;9.118;2024-01-07T13:12:25;7.23;;;6.20;;
12826;SDS011;66927;48.812;9.118;2024-01-07T13:14:51;7.83;;;6.70;;
12826;SDS011;66927;48.812;9.118;2024-01-07T13:17:17;9.77;;;7.80;;
12826;SDS011;66927;48.812;9.118;2024-01-07T13:19:43;7.87;;;6.90;;
12826;SDS011;66927;48.812;9.118;2024-01-07T13:22:09;8.20;;;6.53;;
12826;SDS011;66927;48.812;9.118;2024-01-07T13:24:35;8.40;;;6.63;;
12826;SDS011;66927;48.812;9.118;2024-01-07T13:27:01;7.97;;;7.17;;
12826;SDS011;66927;48.812;9.118;2024-01-07T13:29:27;8.40;;;7.00;;
12826;SDS011;66927;48.812;9.118;2024-01-07T13:31:53;7.63;;;6.80;;
12826;SDS011;66927;48.812;9.118;2024-01-07T13:34:18;7.00;;;6.27;;
12826;SDS011;66927;48.812;9.118;2024-01-07T13:36:46;8.33;;;7.30;;
12826;SDS011;66927;48.812;9.118;2024-01-07T13:39:12;7.33;;;6.40;;
12826;SDS011;66927;48.812;9.118;2024-01-07T13:41:40;8.77;;;6.97;;
12826;SDS011;66927;48.812;9.118;2024-01-07T13:44:06;7.13;;;6.37;;
12826;SDS011;66927;48.812;9.118;2024-01-07T13:46:32;8.87;;;7.23;;
12826;SDS011;66927;48.812;9.118;2024-01-07T13:48:58;7.27;;;6.33;;
12826;SDS011;66927;48.812;9.118;2024-01-07T13:51:24;7.00;;;6.30;;
12826;SDS011;66927;48.812;9.118;2024-01-07T13:53:51;9.73;;;7.40;;
12826;SDS011;66927;48.812;9.118;2024-01-07T13:56:17;7.07;;;6.33;;
12826;SDS011;66927;48.812;9.118;2024-01-07T13:58:44;7.27;;;6.47;;
12826;SDS011;66927;48.812;9.118;2024-01-07T14:01:12;7.50;;;6.70;;
12826;SDS011;66927;48.812;9.118;2024-01-07T14:03:38;8.27;;;7.33;;
12826;SDS011;66927;48.812;9.118;2024-01-07T14:06:04;7.67;;;6.67;;
12826;SDS011;66927;48.812;9.118;2024-01-07T14:08:31;9.43;;;7.53;;
12826;SDS011;66927;48.812;9.118;2024-01-07T14:10:58;29.07;;;19.30;;
12826;SDS011;66927;48.812;9.118;2024-01-07T14:13:24;9.60;;;7.87;;
12826;SDS011;66927;48.812;9.118;2024-01-07T14:15:49;7.23;;;6.37;;
12826;SDS011;66927;48.812;9.118;2024-01-07T14:18:15;7.00;;;6.30;;
12826;SDS011;66927;48.812;9.118;2024-01-07T14:20:42;9.20;;;8.23;;
12826;SDS011;66927;48.812;9.118;2024-01-07T14:23:07;9.47;;;8.00;;
12826;SDS011;66927;48.812;9.118;2024-01-07T14:25:34;8.10;;;7.13;;
12826;SDS011;66927;48.812;9.118;2024-01-07T14:28:00;8.53;;;7.20;;
12826;SDS011;66927;48.812;9.118;2024-01-07T14:30:29;8.67;;;7.77;;
12826;SDS011;66927;48.812;9.118;2024-01-07T14:32:54;8.93;;;7.17;;
12826;SDS011;66927;48.812;9.118;2024-01-07T14:35:20;8.70;;;7.27;;
12826;SDS011;66927;48.812;9.118;2024-01-07T14:37:49;7.87;;;6.70;;
12826;SDS011;66927;48.812;9.118;2024-01-07T14:40:15;8.40;;;7.27;;